• Join FlightAware (Why Join?)
  • Login
  • US Flag 
06:58PM EDT


 

Airport Tracker/Info


-or-


 

Live Flight TrackerFlight Track Log ✈ N6711L ✈ 21-Dec-2013 ✈ KMGM - KAPF

Flight Track Log - Related Links

Times and Time Zones

All times are in EST time to prevent confusion due to time zone crossing. See the N6711L flight status page for this flight to view local times or setup timezone preferences in your user account.

Time Position Orientation Groundspeed Altitude Reporting Facility
EST Latitude Longitude Course Direction KTS MPH feet Rate Location/Type
01:36PM 32.0854 -86.2201 132° Southeast  Level Estimated
01:36PM 32.1686 -86.2278 129° Southeast 115 132 6,500  Level Jacksonville Center
01:37PM 32.0581 -86.1802 129° Southeast  Level FlightAware Approximate
01:37PM 32.1583 -86.2153 134° Southeast 119 137 6,800  Level Jacksonville Center
01:38PM 32.0309 -86.1403 129° Southeast  Level FlightAware Approximate
01:38PM 32.1322 -86.1800 131° Southeast 119 137 7,800  Level Jacksonville Center
01:39PM 32.0036 -86.1004 129° Southeast  Level FlightAware Approximate
01:39PM 32.1119 -86.1594 139° Southeast 111 128 8,500  Level Jacksonville Center
01:40PM 31.9763 -86.0605 129° Southeast  Level FlightAware Approximate
01:40PM 32.0897 -86.1269 129° Southeast 126 145 9,100  Level Jacksonville Center
01:41PM 31.9490 -86.0207 129° Southeast  Level FlightAware Approximate
01:41PM 32.0572 -86.0914 137° Southeast 153 176 9,000  Level Jacksonville Center
01:42PM 32.0289 -86.0536 131° Southeast 150 173 9,200  Climbing Jacksonville Center
01:43PM 32.0008 -86.0136 130° Southeast 156 180 9,000 -60 Descending Jacksonville Center
01:44PM 31.9706 -85.9708 130° Southeast 165 190 9,100  Climbing Jacksonville Center
01:45PM 31.9400 -85.9308 132° Southeast 152 175 9,100  Level Jacksonville Center
01:46PM 31.9117 -85.8981 136° Southeast 154 177 9,100  Level Jacksonville Center
01:47PM 31.8794 -85.8528 130° Southeast 156 180 9,200  Climbing Jacksonville Center
01:48PM 31.8531 -85.8153 130° Southeast 158 182 9,100 -60 Descending Jacksonville Center
01:49PM 31.8183 -85.7872 146° Southeast 153 176 9,100  Level Jacksonville Center
01:50PM 31.7917 -85.7644 144° Southeast 148 170 9,200  Climbing Jacksonville Center
01:51PM 31.7547 -85.7389 150° Southeast 149 171 9,100  Descending Jacksonville Center
01:52PM 31.7197 -85.7111 146° Southeast 152 175 9,200  Climbing Jacksonville Center
01:53PM 31.6850 -85.6806 143° Southeast 151 174 9,200 -60 Level Jacksonville Center
01:54PM 31.6500 -85.6553 148° Southeast 151 174 9,100 -60 Descending Jacksonville Center
01:55PM 31.6131 -85.6272 147° Southeast 152 175 9,100  Level Jacksonville Center
01:56PM 31.5781 -85.6019 148° Southeast 150 173 9,100  Level Jacksonville Center
01:57PM 31.5433 -85.5717 143° Southeast 150 173 9,100  Level Jacksonville Center
01:58PM 31.5103 -85.5511 152° Southeast 146 168 9,200  Climbing Jacksonville Center
01:59PM 31.4686 -85.5450 173° South 143 165 9,200  Level Jacksonville Center
02:00PM 31.4353 -85.5369 168° South 146 168 9,200 -60 Level Jacksonville Center
02:01PM 31.3942 -85.5114 152° Southeast 155 178 9,100  Descending Jacksonville Center
02:02PM 31.3592 -85.4861 148° Southeast 154 177 9,200  Climbing Jacksonville Center
02:03PM 31.3222 -85.4558 145° Southeast 155 178 9,200  Level Jacksonville Center
02:04PM 31.2872 -85.4306 148° Southeast 157 181 9,200 -60 Level Jacksonville Center
02:05PM 31.2544 -85.3956 138° Southeast 168 193 9,100 -60 Descending Jacksonville Center
02:06PM 31.2283 -85.3536 126° Southeast 168 193 9,100  Level Jacksonville Center
02:07PM 31.1956 -85.3114 132° Southeast 168 193 9,100  Level Jacksonville Center
02:08PM 31.1714 -85.2697 124° Southeast 165 190 9,100  Level Jacksonville Center
02:09PM 31.1408 -85.2250 129° Southeast 164 189 9,100  Level Jacksonville Center
02:10PM 31.1122 -85.1856 130° Southeast 165 190 9,100  Level Jacksonville Center
02:11PM 31.0797 -85.1386 129° Southeast 167 192 9,100  Level Jacksonville Center
02:12PM 31.0492 -85.0919 127° Southeast 169 194 9,100  Level Jacksonville Center
02:13PM 31.0206 -85.0572 134° Southeast 168 193 9,100  Level Jacksonville Center
02:14PM 30.9900 -85.0131 129° Southeast 169 194 9,100  Level Jacksonville Center
02:39PM 30.2494 -83.9531 147° Southeast 161 185 9,200  Climbing Jacksonville Center
02:40PM 30.0053 -84.4669 149° Southeast  Level FlightAware Approximate
02:40PM 30.2206 -83.9142 131° Southeast 161 185 9,200  Level Jacksonville Center
02:41PM 29.9683 -84.4417 149° Southeast  Level FlightAware Approximate
02:41PM 30.1958 -83.8803 130° Southeast 161 185 9,200  Level Jacksonville Center
02:42PM 29.9313 -84.4165 149° Southeast  Level FlightAware Approximate
02:42PM 30.1669 -83.8392 129° Southeast 166 191 9,200  Level Jacksonville Center
02:43PM 29.8942 -84.3914 149° Southeast  Level FlightAware Approximate
02:43PM 30.1358 -83.8006 133° Southeast 166 191 9,100  Level Jacksonville Center
02:44PM 29.8572 -84.3662 149° Southeast  Level FlightAware Approximate
02:44PM 30.1069 -83.7569 127° Southeast 161 185 9,200  Level Jacksonville Center
02:45PM 29.8209 -84.3397 147° Southeast  Level Estimated
02:45PM 30.0800 -83.7206 131° Southeast 161 185 9,200  Level Jacksonville Center
02:46PM 30.0469 -83.6747 130° Southeast 161 185 9,200  Level Jacksonville Center
02:47PM 30.0200 -83.6386 131° Southeast 161 185 9,200  Level Jacksonville Center
02:48PM 29.9911 -83.5975 129° Southeast 161 185 9,200  Level Jacksonville Center
02:49PM 29.9578 -83.5614 137° Southeast 161 185 9,200  Level Jacksonville Center
02:50PM 29.9206 -83.5300 144° Southeast 161 185 9,200  Level Jacksonville Center
02:51PM 29.8850 -83.5011 145° Southeast 161 185 9,200  Level Jacksonville Center
02:52PM 29.8478 -83.4672 142° Southeast 161 185 9,200  Level Jacksonville Center
02:53PM 29.8122 -83.4383 145° Southeast 161 185 9,200  Level Jacksonville Center
02:54PM 29.7747 -83.4069 144° Southeast 166 191 9,200  Level Jacksonville Center
02:55PM 29.7394 -83.3758 143° Southeast 166 191 9,200  Level Jacksonville Center
02:56PM 29.7019 -83.3419 142° Southeast 166 191 9,200  Level Jacksonville Center
02:57PM 29.6667 -83.3086 141° Southeast 171 197 9,200  Level Jacksonville Center
02:58PM 29.6292 -83.2772 144° Southeast 171 197 9,200  Level Jacksonville Center
02:59PM 29.5917 -83.2436 142° Southeast 165 190 9,200  Level Jacksonville Center
03:00PM 29.5583 -83.2150 143° Southeast 166 191 9,200  Level Jacksonville Center
03:00PM 29.5583 -83.2125 90° East 172 198 9,200  Level Jacksonville Center
03:01PM 29.5167 -83.1767 143° Southeast 170 196 9,200  Level Jacksonville Center
03:02PM 29.4814 -83.1478 145° Southeast 173 199 9,200  Level Jacksonville Center
03:03PM 29.4772 -83.1406 124° Southeast 167 192 9,200  Level Jacksonville Center
03:03PM 29.4481 -83.1119 139° Southeast 173 199 9,200  Level Jacksonville Center
03:03PM 29.4417 -83.1094 161° South 168 193 9,200  Level Jacksonville Center
03:04PM 29.4083 -83.0808 143° Southeast 173 199 9,200  Level Jacksonville Center
03:04PM 29.4042 -83.0786 155° Southeast 167 192 9,200 -120 Level Jacksonville Center
03:05PM 29.3728 -83.0475 139° Southeast 173 199 9,100  Descending Jacksonville Center
03:05PM 29.3667 -83.0450 160° South 168 193 9,200 60 Climbing Jacksonville Center
03:06PM 29.3333 -83.0164 143° Southeast 166 191 9,200  Level Jacksonville Center
03:06PM 29.3353 -83.0189 312° West 173 199 9,200  Level Jacksonville Center
03:07PM 29.3000 -82.9903 145° Southeast 165 190 9,200  Level Jacksonville Center
03:07PM 29.2978 -82.9878 136° Southeast 173 199 9,200  Level Jacksonville Center
03:08PM 29.2603 -82.9544 142° Southeast 173 199 9,200  Level Jacksonville Center
03:09PM 29.2228 -82.9211 142° Southeast 165 190 9,200  Level Jacksonville Center
03:09PM 29.2269 -82.9211 360° North 173 199 9,200  Level Jacksonville Center
03:10PM 29.1892 -82.8878 142° Southeast 165 190 9,200  Level Jacksonville Center
03:10PM 29.1914 -82.8903 316° Northwest 173 199 9,200  Level Jacksonville Center
03:11PM 29.1517 -82.8544 142° Southeast 166 191 9,200  Level Jacksonville Center
03:12PM 29.1142 -82.8236 144° Southeast 167 192 9,200  Level Jacksonville Center
03:13PM 29.0764 -82.7928 144° Southeast 168 193 9,300  Climbing Jacksonville Center
03:14PM 29.0347 -82.7572 143° Southeast 167 192 9,300 -60 Level Jacksonville Center
03:15PM 29.0014 -82.7242 139° Southeast 167 192 9,200 -60 Descending Jacksonville Center
03:17PM 28.9617 -82.6908 144° Southeast 166 191 9,200  Level Jacksonville Center
03:18PM 28.9239 -82.6578 143° Southeast 165 190 9,200  Level Jacksonville Center
03:19PM 28.8842 -82.6247 144° Southeast 164 189 9,200  Level Jacksonville Center
03:20PM 28.8467 -82.5939 144° Southeast 166 191 9,200 -60 Level Jacksonville Center
03:21PM 28.8111 -82.5608 141° Southeast 167 192 9,100  Descending Jacksonville Center
03:22PM 28.7733 -82.5303 145° Southeast 167 192 9,200  Climbing Jacksonville Center
03:23PM 28.7400 -82.4972 139° Southeast 166 191 9,200  Level Jacksonville Center
03:25PM 28.6500 -82.4333 148° Southeast 166 191 9,200  Level Tampa TRACON
03:26PM 28.6000 -82.4000 150° Southeast 166 191 9,200  Level Tampa TRACON
03:27PM 28.5500 -82.3833 164° South 167 192 9,300 -60 Climbing Tampa TRACON
03:28PM 28.5167 -82.3500 139° Southeast 176 203 9,100 -120 Descending Tampa TRACON
03:29PM 28.4667 -82.3167 150° Southeast 169 194 9,100  Level Tampa TRACON
03:30PM 28.4333 -82.3000 156° South 164 189 9,100  Level Tampa TRACON
03:31PM 28.4000 -82.2667 139° Southeast 166 191 9,100  Level Tampa TRACON
03:32PM 28.3500 -82.2500 164° South 167 192 9,100  Level Tampa TRACON
03:33PM 28.3167 -82.2167 139° Southeast 163 188 9,100  Level Tampa TRACON
03:34PM 28.2833 -82.2000 156° South 165 190 9,100 60 Level Tampa TRACON
03:35PM 28.2333 -82.1667 150° Southeast 165 190 9,300  Climbing Tampa TRACON
03:36PM 28.2000 -82.1500 156° South 165 190 9,100 -60 Descending Tampa TRACON
03:37PM 28.1500 -82.1167 150° Southeast 164 189 9,200  Climbing Tampa TRACON
03:39PM 28.0908 -82.0811 152° Southeast 130 150 9,200  Level Miami Center
03:40PM 28.0481 -82.0578 154° Southeast 162 186 9,200  Level Miami Center
03:41PM 28.0092 -82.0325 150° Southeast 162 186 9,200  Level Miami Center
03:42PM 27.9706 -82.0025 146° Southeast 167 192 9,200  Level Miami Center
03:43PM 27.9278 -81.9794 155° Southeast 167 192 9,200  Level Miami Center
03:44PM 27.8844 -81.9611 159° South 167 192 9,200  Level Miami Center
03:45PM 27.8436 -81.9381 153° Southeast 167 192 9,200 -60 Level Miami Center
03:46PM 27.8069 -81.9156 152° Southeast 174 200 9,100 -60 Descending Miami Center
03:47PM 27.7597 -81.8900 154° Southeast 174 200 9,100  Level Miami Center
03:48PM 27.7164 -81.8764 164° South 174 200 9,200  Climbing Miami Center
03:49PM 27.6703 -81.8811 185° South 163 188 9,200  Level Miami Center
03:50PM 27.6325 -81.8889 190° South 158 182 9,200  Level Miami Center
03:51PM 27.5844 -81.8939 185° South 163 188 9,200  Level Miami Center
03:52PM 27.5358 -81.9058 192° South 163 188 9,200  Level Miami Center
03:53PM 27.4897 -81.9131 188° South 163 188 9,200 -300 Level Miami Center
03:54PM 27.4394 -81.9203 187° South 168 193 8,600 -600 Descending Miami Center
03:55PM 27.3911 -81.9275 188° South 173 199 8,000 -600 Descending Miami Center
03:56PM 27.3453 -81.9231 175° South 179 206 7,500 -360 Descending Miami Center
03:57PM 27.3017 -81.9167 173° South 168 193 7,300 -180 Descending Miami Center
03:58PM 27.2639 -81.9267 193° South 161 185 7,200 -120 Descending Miami Center
03:59PM 27.2178 -81.9339 188° South 161 185 7,100  Descending Miami Center
04:00PM 27.1756 -81.9461 194° South 161 185 7,200  Climbing Miami Center
04:01PM 27.1336 -81.9536 189° South 161 185 7,200 -60 Level Miami Center
04:02PM 27.0894 -81.9586 186° South 161 185 7,100 -120 Descending Miami Center
04:03PM 27.0453 -81.9706 194° South 161 185 7,000  Descending Miami Center
04:04PM 26.9975 -81.9614 170° South 161 185 7,100  Climbing Miami Center
04:05PM 26.9603 -81.9531 169° South 161 185 7,100  Level Miami Center
04:06PM 26.9189 -81.9417 166° South 155 178 7,100  Level Miami Center
04:07PM 26.8753 -81.9375 175° South 160 184 7,100  Level Miami Center
04:08PM 26.8317 -81.9286 170° South 160 184 7,100  Level Miami Center
04:10PM 26.7526 -81.9142 171° South  Level FlightAware Approximate
04:17PM 26.4487 -81.8452 167° South  Level FlightAware Approximate
04:18PM 26.4054 -81.8336 167° South  Level FlightAware Approximate
04:19PM 26.3621 -81.8221 167° South  Level FlightAware Approximate
04:20PM 26.3188 -81.8105 167° South  Level FlightAware Approximate
04:21PM 26.2755 -81.7990 167° South  Level FlightAware Approximate
04:22PM 26.2322 -81.7875 167° South  Level FlightAware Approximate
04:23PM 26.1888 -81.7764 167° South  Level FlightAware Approximate
04:24PM 26.1500 -81.7667 167° South  Level FlightAware Approximate
04:25PM 26.1524 -81.7756 167° South  Level Estimated
04:26PM 26.1524 -81.7756 167° South  Level Estimated
04:27PM 26.1524 -81.7756 167° South  Level Estimated
04:28PM 26.1524 -81.7756 167° South  Level Estimated
04:29PM 26.1524 -81.7756 167° South  Level Estimated
04:30PM 26.1524 -81.7756 167° South  Level Estimated
04:31PM 26.1524 -81.7756 167° South  Level Estimated
04:32PM 26.1524 -81.7756 167° South  Level Estimated
04:33PM 26.1524 -81.7756 167° South  Level Estimated
04:34PM 26.1524 -81.7756 167° South  Level Estimated
04:35PM 26.1524 -81.7756 167° South  Level Estimated
04:36PM 26.1524 -81.7756 167° South  Level Estimated
04:37PM 26.1524 -81.7756 167° South  Level Estimated
04:38PM 26.1524 -81.7756 167° South  Level Estimated
04:39PM 26.1524 -81.7756 167° South  Level Estimated
04:40PM 26.1524 -81.7756 167° South  Level Estimated